Time,TemperatureF,DewpointF,PressureIn,WindDirection,WindDirectionDegrees,WindSpeedMPH,WindSpeedGustMPH,Humidity,HourlyPrecipIn,Conditions,Clouds,dailyrainin,SoftwareType,DateUTC
2013-01-26 00:03:00,14.0,-99.9,-100.00,WSW,244,8.0,25.0,-999,-99.99,,,-99.99,,2013-01-26 06:03:00,
2013-01-26 00:12:00,13.0,-99.9,-100.00,WSW,254,5.0,8.0,-999,-99.99,,,-99.99,,2013-01-26 06:12:00,
2013-01-26 00:22:00,14.0,-99.9,-100.00,WSW,244,8.0,25.0,-999,-99.99,,,-99.99,,2013-01-26 06:22:00,
2013-01-26 00:32:00,14.0,-99.9,-100.00,WSW,244,8.0,25.0,-999,-99.99,,,-99.99,,2013-01-26 06:32:00,
2013-01-26 00:40:00,13.0,-99.9,-100.00,WSW,246,4.0,10.0,-999,-99.99,,,-99.99,,2013-01-26 06:40:00,
2013-01-26 00:42:00,14.0,-99.9,-100.00,WSW,244,8.0,25.0,-999,-99.99,,,-99.99,,2013-01-26 06:42:00,
2013-01-26 00:52:00,14.0,-99.9,-100.00,WSW,244,8.0,25.0,-999,-99.99,,,-99.99,,2013-01-26 06:52:00,
2013-01-26 01:02:00,14.0,-99.9,-100.00,WSW,244,8.0,25.0,-999,-99.99,,,-99.99,,2013-01-26 07:02:00,
2013-01-26 01:12:00,13.0,-99.9,-100.00,WSW,246,4.0,10.0,-999,-99.99,,,-99.99,,2013-01-26 07:12:00,
2013-01-26 01:22:00,13.0,-99.9,-100.00,WSW,246,4.0,10.0,-999,-99.99,,,-99.99,,2013-01-26 07:22:00,
2013-01-26 01:33:00,13.0,-99.9,-100.00,WSW,246,4.0,10.0,-999,-99.99,,,-99.99,,2013-01-26 07:33:00,
2013-01-26 01:40:00,13.0,-99.9,-100.00,WSW,240,8.0,12.0,-999,-99.99,,,-99.99,,2013-01-26 07:40:00,
2013-01-26 02:11:00,13.0,-99.9,-100.00,WSW,240,8.0,12.0,-999,-99.99,,,-99.99,,2013-01-26 08:11:00,
2013-01-26 02:22:00,13.0,-99.9,-100.00,WSW,240,8.0,12.0,-999,-99.99,,,-99.99,,2013-01-26 08:22:00,
2013-01-26 02:32:00,13.0,-99.9,-100.00,WSW,240,8.0,12.0,-999,-99.99,,,-99.99,,2013-01-26 08:32:00,
2013-01-26 02:40:00,12.0,-99.9,-100.00,SSW,208,7.0,10.0,-999,-99.99,,,-99.99,,2013-01-26 08:40:00,
2013-01-26 03:11:00,12.0,-99.9,-100.00,SSW,208,7.0,10.0,-999,-99.99,,,-99.99,,2013-01-26 09:11:00,
2013-01-26 03:22:00,12.0,-99.9,-100.00,SSW,208,7.0,10.0,-999,-99.99,,,-99.99,,2013-01-26 09:22:00,
2013-01-26 03:32:00,12.0,-99.9,-100.00,SSW,208,7.0,10.0,-999,-99.99,,,-99.99,,2013-01-26 09:32:00,
2013-01-26 03:40:00,12.0,-99.9,-100.00,SSW,200,7.0,10.0,-999,-99.99,,,-99.99,,2013-01-26 09:40:00,
2013-01-26 04:12:00,12.0,-99.9,-100.00,SSW,200,7.0,10.0,-999,-99.99,,,-99.99,,2013-01-26 10:12:00,
2013-01-26 04:22:00,12.0,-99.9,-100.00,SSW,200,7.0,10.0,-999,-99.99,,,-99.99,,2013-01-26 10:22:00,
2013-01-26 04:32:00,12.0,-99.9,-100.00,SSW,200,7.0,10.0,-999,-99.99,,,-99.99,,2013-01-26 10:32:00,
2013-01-26 04:40:00,11.0,-99.9,-100.00,SSW,195,7.0,10.0,-999,-99.99,,,-99.99,,2013-01-26 10:40:00,
2013-01-26 05:12:00,11.0,-99.9,-100.00,SSW,195,7.0,10.0,-999,-99.99,,,-99.99,,2013-01-26 11:12:00,
2013-01-26 05:22:00,11.0,-99.9,-100.00,SSW,195,7.0,10.0,-999,-99.99,,,-99.99,,2013-01-26 11:22:00,
2013-01-26 05:32:00,11.0,-99.9,-100.00,SSW,195,7.0,10.0,-999,-99.99,,,-99.99,,2013-01-26 11:32:00,
2013-01-26 05:40:00,10.0,-99.9,-100.00,SSW,200,9.0,13.0,-999,-99.99,,,-99.99,,2013-01-26 11:40:00,
2013-01-26 06:12:00,10.0,-99.9,-100.00,SSW,200,9.0,13.0,-999,-99.99,,,-99.99,,2013-01-26 12:12:00,
2013-01-26 06:23:00,10.0,-99.9,-100.00,SSW,200,9.0,13.0,-999,-99.99,,,-99.99,,2013-01-26 12:23:00,
2013-01-26 06:33:00,10.0,-99.9,-100.00,SSW,200,9.0,13.0,-999,-99.99,,,-99.99,,2013-01-26 12:33:00,
2013-01-26 06:40:00,10.0,-99.9,-100.00,South,191,9.0,13.0,-999,-99.99,,,-99.99,,2013-01-26 12:40:00,
2013-01-26 07:12:00,10.0,-99.9,-100.00,South,191,9.0,13.0,-999,-99.99,,,-99.99,,2013-01-26 13:12:00,
2013-01-26 07:22:00,10.0,-99.9,-100.00,South,191,9.0,13.0,-999,-99.99,,,-99.99,,2013-01-26 13:22:00,
2013-01-26 07:33:00,10.0,-99.9,-100.00,South,191,9.0,13.0,-999,-99.99,,,-99.99,,2013-01-26 13:33:00,
2013-01-26 07:40:00,10.0,-99.9,-100.00,SSW,192,8.0,10.0,-999,-99.99,,,-99.99,,2013-01-26 13:40:00,
2013-01-26 08:12:00,10.0,-99.9,-100.00,SSW,192,8.0,10.0,-999,-99.99,,,-99.99,,2013-01-26 14:12:00,
2013-01-26 08:22:00,10.0,-99.9,-100.00,SSW,192,8.0,10.0,-999,-99.99,,,-99.99,,2013-01-26 14:22:00,
2013-01-26 08:32:00,10.0,-99.9,-100.00,SSW,192,8.0,10.0,-999,-99.99,,,-99.99,,2013-01-26 14:32:00,
2013-01-26 08:40:00,11.0,-99.9,-100.00,SSW,192,9.0,13.0,-999,-99.99,,,-99.99,,2013-01-26 14:40:00,
2013-01-26 09:13:00,11.0,-99.9,-100.00,SSW,192,9.0,13.0,-999,-99.99,,,-99.99,,2013-01-26 15:13:00,
2013-01-26 09:22:00,11.0,-99.9,-100.00,SSW,192,9.0,13.0,-999,-99.99,,,-99.99,,2013-01-26 15:22:00,
2013-01-26 09:33:00,11.0,-99.9,-100.00,SSW,192,9.0,13.0,-999,-99.99,,,-99.99,,2013-01-26 15:33:00,
2013-01-26 09:40:00,13.0,-99.9,-100.00,SSW,194,8.0,10.0,-999,-99.99,,,-99.99,,2013-01-26 15:40:00,
2013-01-26 10:13:00,13.0,-99.9,-100.00,SSW,194,8.0,10.0,-999,-99.99,,,-99.99,,2013-01-26 16:13:00,
2013-01-26 10:22:00,13.0,-99.9,-100.00,SSW,194,8.0,10.0,-999,-99.99,,,-99.99,,2013-01-26 16:22:00,
2013-01-26 10:33:00,13.0,-99.9,-100.00,SSW,194,8.0,10.0,-999,-99.99,,,-99.99,,2013-01-26 16:33:00,
2013-01-26 10:40:00,16.0,-99.9,-100.00,SSW,192,4.0,9.0,-999,-99.99,,,-99.99,,2013-01-26 16:40:00,
2013-01-26 11:13:00,16.0,-99.9,-100.00,SSW,192,4.0,9.0,-999,-99.99,,,-99.99,,2013-01-26 17:13:00,
2013-01-26 11:23:00,16.0,-99.9,-100.00,SSW,192,4.0,9.0,-999,-99.99,,,-99.99,,2013-01-26 17:23:00,
2013-01-26 11:33:00,16.0,-99.9,-100.00,SSW,192,4.0,9.0,-999,-99.99,,,-99.99,,2013-01-26 17:33:00,
2013-01-26 11:40:00,26.0,-99.9,-100.00,North,-999,0.0,3.0,-999,-99.99,,,-99.99,,2013-01-26 17:40:00,
2013-01-26 12:12:00,26.0,-99.9,-100.00,North,-999,0.0,3.0,-999,-99.99,,,-99.99,,2013-01-26 18:12:00,
2013-01-26 12:22:00,26.0,-99.9,-100.00,North,-999,0.0,3.0,-999,-99.99,,,-99.99,,2013-01-26 18:22:00,
2013-01-26 12:33:00,26.0,-99.9,-100.00,North,-999,0.0,3.0,-999,-99.99,,,-99.99,,2013-01-26 18:33:00,
2013-01-26 12:40:00,22.0,-99.9,-100.00,North,10,3.0,6.0,-999,-99.99,,,-99.99,,2013-01-26 18:40:00,
2013-01-26 13:12:00,22.0,-99.9,-100.00,North,10,3.0,6.0,-999,-99.99,,,-99.99,,2013-01-26 19:12:00,
2013-01-26 13:23:00,22.0,-99.9,-100.00,North,10,3.0,6.0,-999,-99.99,,,-99.99,,2013-01-26 19:23:00,
2013-01-26 13:33:00,22.0,-99.9,-100.00,North,10,3.0,6.0,-999,-99.99,,,-99.99,,2013-01-26 19:33:00,
2013-01-26 14:12:00,21.0,-99.9,-100.00,NNE,28,4.0,8.0,-999,-99.99,,,-99.99,,2013-01-26 20:12:00,
2013-01-26 14:22:00,22.0,-99.9,-100.00,NE,53,5.0,15.0,-999,-99.99,,,-99.99,,2013-01-26 20:22:00,
2013-01-26 14:32:00,22.0,-99.9,-100.00,NE,53,5.0,15.0,-999,-99.99,,,-99.99,,2013-01-26 20:32:00,
2013-01-26 14:40:00,21.0,-99.9,-100.00,NE,47,4.0,7.0,-999,-99.99,,,-99.99,,2013-01-26 20:40:00,
2013-01-26 14:42:00,22.0,-99.9,-100.00,NE,53,5.0,15.0,-999,-99.99,,,-99.99,,2013-01-26 20:42:00,
2013-01-26 14:52:00,22.0,-99.9,-100.00,NE,53,5.0,15.0,-999,-99.99,,,-99.99,,2013-01-26 20:52:00,
2013-01-26 15:03:00,22.0,-99.9,-100.00,NE,53,5.0,15.0,-999,-99.99,,,-99.99,,2013-01-26 21:03:00,
2013-01-26 15:12:00,21.0,-99.9,-100.00,NE,47,4.0,7.0,-999,-99.99,,,-99.99,,2013-01-26 21:12:00,
2013-01-26 15:23:00,21.0,-99.9,-100.00,NE,47,4.0,7.0,-999,-99.99,,,-99.99,,2013-01-26 21:23:00,
2013-01-26 15:32:00,21.0,-99.9,-100.00,NE,47,4.0,7.0,-999,-99.99,,,-99.99,,2013-01-26 21:32:00,
2013-01-26 15:40:00,22.0,-99.9,-100.00,East,81,1.0,5.0,-999,-99.99,,,-99.99,,2013-01-26 21:40:00,
2013-01-26 16:12:00,22.0,-99.9,-100.00,East,81,1.0,5.0,-999,-99.99,,,-99.99,,2013-01-26 22:12:00,
2013-01-26 16:22:00,22.0,-99.9,-100.00,East,81,1.0,5.0,-999,-99.99,,,-99.99,,2013-01-26 22:22:00,
2013-01-26 16:32:00,22.0,-99.9,-100.00,East,81,1.0,5.0,-999,-99.99,,,-99.99,,2013-01-26 22:32:00,
2013-01-26 16:40:00,22.0,-99.9,-100.00,North,-999,0.0,0.0,-999,-99.99,,,-99.99,,2013-01-26 22:40:00,
2013-01-26 17:12:00,22.0,-99.9,-100.00,North,-999,0.0,0.0,-999,-99.99,,,-99.99,,2013-01-26 23:12:00,
2013-01-26 17:22:00,22.0,-99.9,-100.00,North,-999,0.0,0.0,-999,-99.99,,,-99.99,,2013-01-26 23:22:00,
2013-01-26 17:33:00,22.0,-99.9,-100.00,North,-999,0.0,0.0,-999,-99.99,,,-99.99,,2013-01-26 23:33:00,
2013-01-26 17:40:00,21.0,-99.9,-100.00,North,-999,0.0,0.0,-999,-99.99,,,-99.99,,2013-01-26 23:40:00,
2013-01-26 18:12:00,21.0,-99.9,-100.00,North,-999,0.0,0.0,-999,-99.99,,,-99.99,,2013-01-27 00:12:00,
2013-01-26 18:22:00,21.0,-99.9,-100.00,North,-999,0.0,0.0,-999,-99.99,,,-99.99,,2013-01-27 00:22:00,
2013-01-26 18:32:00,21.0,-99.9,-100.00,North,-999,0.0,0.0,-999,-99.99,,,-99.99,,2013-01-27 00:32:00,
2013-01-26 18:40:00,22.0,-99.9,-100.00,SE,128,0.0,2.0,-999,-99.99,,,-99.99,,2013-01-27 00:40:00,
2013-01-26 19:11:00,22.0,-99.9,-100.00,SE,128,0.0,2.0,-999,-99.99,,,-99.99,,2013-01-27 01:11:00,
2013-01-26 19:22:00,22.0,-99.9,-100.00,SE,128,0.0,2.0,-999,-99.99,,,-99.99,,2013-01-27 01:22:00,
2013-01-26 19:32:00,22.0,-99.9,-100.00,SE,128,0.0,2.0,-999,-99.99,,,-99.99,,2013-01-27 01:32:00,
2013-01-26 19:40:00,21.0,-99.9,-100.00,North,-999,0.0,0.0,-999,-99.99,,,-99.99,,2013-01-27 01:40:00,
2013-01-26 20:12:00,21.0,-99.9,-100.00,North,-999,0.0,0.0,-999,-99.99,,,-99.99,,2013-01-27 02:12:00,
2013-01-26 20:22:00,21.0,-99.9,-100.00,North,-999,0.0,0.0,-999,-99.99,,,-99.99,,2013-01-27 02:22:00,
2013-01-26 20:32:00,21.0,-99.9,-100.00,North,-999,0.0,0.0,-999,-99.99,,,-99.99,,2013-01-27 02:32:00,
2013-01-26 20:40:00,21.0,-99.9,-100.00,SSW,205,0.0,1.0,-999,-99.99,,,-99.99,,2013-01-27 02:40:00,
2013-01-26 21:12:00,21.0,-99.9,-100.00,SSW,205,0.0,1.0,-999,-99.99,,,-99.99,,2013-01-27 03:12:00,
2013-01-26 21:22:00,21.0,-99.9,-100.00,SSW,205,0.0,1.0,-999,-99.99,,,-99.99,,2013-01-27 03:22:00,
2013-01-26 21:32:00,21.0,-99.9,-100.00,SSW,205,0.0,1.0,-999,-99.99,,,-99.99,,2013-01-27 03:32:00,
2013-01-26 21:40:00,22.0,-99.9,-100.00,South,190,2.0,6.0,-999,-99.99,,,-99.99,,2013-01-27 03:40:00,
2013-01-26 22:12:00,22.0,-99.9,-100.00,South,190,2.0,6.0,-999,-99.99,,,-99.99,,2013-01-27 04:12:00,
2013-01-26 22:22:00,22.0,-99.9,-100.00,South,190,2.0,6.0,-999,-99.99,,,-99.99,,2013-01-27 04:22:00,
2013-01-26 22:32:00,22.0,-99.9,-100.00,South,190,2.0,6.0,-999,-99.99,,,-99.99,,2013-01-27 04:32:00,
2013-01-26 22:40:00,22.0,-99.9,-100.00,South,180,4.0,8.0,-999,-99.99,,,-99.99,,2013-01-27 04:40:00,
2013-01-26 23:12:00,22.0,-99.9,-100.00,South,180,4.0,8.0,-999,-99.99,,,-99.99,,2013-01-27 05:12:00,
2013-01-26 23:22:00,22.0,-99.9,-100.00,South,180,4.0,8.0,-999,-99.99,,,-99.99,,2013-01-27 05:22:00,
2013-01-26 23:32:00,22.0,-99.9,-100.00,South,180,4.0,8.0,-999,-99.99,,,-99.99,,2013-01-27 05:32:00,
2013-01-26 23:40:00,21.0,-99.9,-100.00,SSW,200,2.0,6.0,-999,-99.99,,,-99.99,,2013-01-27 05:40:00,